Domov               UVHVVR             MKGP            O straneh              
ZDRAVSTVENO VARSTVO RASTLIN
  MREŽA AGROMET. POSTAJ
 ► PROGNOSTIČNA OBVESTILA
AGROMETEOROLOŠKI PODATKI -
ARSO
OBVLADOVANJE TVEGANJ ZARADI
NEUGODNIH VREMENSKIH RAZMER
  ► NARAVNE NESREČE
  ► SUŠA/MOČA
  ► NAMAKANJE
  ► ŽLED (gozdarstvo)
KARTOGRAFSKI PRIKAZI
SPLETNE POVEZAVE
PROJEKTI IN PUBLIKACIJE

AGROMETEOROLOŠKA MREŽA: VREMENSKE POSTAJE IN FENOLOŠKA OPAZOVANJA

Pregled podatkov za lokacijo Vnajnarje, meteorološka postaja 27470

Pregled senzorjev na lokaciji

ID Ime Zadnja
vrednost
Datum
zadnje
spremembe
Tip
senzorja
3759 Omočenost lista (U) 0 U 26.3.2019 18:30 A730WET
3756 Padavine (mm) 0 mm 26.3.2019 18:30 Generic 0.2 mm
3757 Relativna vlaga 2 m (% RH) 47,86 % RH 26.3.2019 18:30 Generic 0 - 100 %
3758 Temperatura 2 m (°C) 6,94 °C 26.3.2019 18:30 Generic -40 - +60 °C

Pregled podatkov zadnjih 24 ur

Zap.
št.
Datum in čas Vnajnarje
Omočenost
lista
Padavine Relativna
vlaga
2
m
Temperatura
2
m
1 26.3.2019 17:30 0 0 47,9 6,9
2 26.3.2019 17:00 0 0 46,9 7,3
3 26.3.2019 16:30 0 0 47,5 7,7
4 26.3.2019 16:00 0 0 46,7 8
5 26.3.2019 15:30 0 0 46,3 8,4
6 26.3.2019 15:00 0 0 47,4 8,3
7 26.3.2019 14:30 0 0 48 8,5
8 26.3.2019 14:00 0 0 46,4 8,5
9 26.3.2019 13:30 0 0 48,6 8,5
10 26.3.2019 13:00 0 0 46,2 8
11 26.3.2019 12:30 0 0 49,8 8,2
12 26.3.2019 12:00 0 0 49,3 7,8
13 26.3.2019 11:30 0 0 51,9 7,3
14 26.3.2019 11:00 0 0 55,2 6,9
15 26.3.2019 10:30 0 0 60 6,3
16 26.3.2019 10:00 0 0 60,7 5,4
17 26.3.2019 09:30 1 0 65 4,8
18 26.3.2019 09:00 1 0 69,8 4,3
19 26.3.2019 08:30 0 1,4 71,8 3,6
20 26.3.2019 08:00 0 2,2 79 2,5
21 26.3.2019 07:30 10 0,8 79,9 2
22 26.3.2019 07:00 10 0,2 80,4 1,7
23 26.3.2019 06:30 10 0 83,9 1,2
24 26.3.2019 06:00 10 0,2 86,1 1,3
25 26.3.2019 05:30 10 0 84,7 1,3
26 26.3.2019 05:00 10 0 95 0,8
27 26.3.2019 04:30 10 0 99,9 0,6
28 26.3.2019 04:00 10 0,2 99,9 0,7
29 26.3.2019 03:30 10 0,2 99,9 0,7
30 26.3.2019 03:00 10 0 99,9 0,6
31 26.3.2019 02:30 10 0,2 99,9 0,5
32 26.3.2019 02:00 10 0,2 99,9 0,5
33 26.3.2019 01:30 10 0 99,9 0,4
34 26.3.2019 01:00 10 0,2 99,9 0,3
35 26.3.2019 00:30 10 0,2 99,9 0,3
36 26.3.2019 00:00 10 0,2 99,9 0,5
37 25.3.2019 23:30 10 0,4 99,9 0,4
38 25.3.2019 23:00 10 0,4 99,9 0,5
39 25.3.2019 22:30 10 0,6 99,9 0,5
40 25.3.2019 22:00 10 0,6 99,9 0,4
41 25.3.2019 21:30 10 0,6 99,9 0,3
42 25.3.2019 21:00 10 0 99,9 0,3
43 25.3.2019 20:30 10 0 99,9 0,3
44 25.3.2019 20:00 10 2,6 99,9 1,4
45 25.3.2019 19:30 9 1,8 99,9 2,5
46 25.3.2019 19:00 10 3,2 99,9 3,4
47 25.3.2019 18:30 10 1,6 98,5 4,3
48 25.3.2019 18:00 10 1,2 98,8 4,8
© 2011 Ministrstvo za kmetijstvo, gozdarstvo in prehrano. Vse pravice pridržane.